createdAt,value
2019-05-15T00:01:19.413Z,64.30
2019-05-15T00:03:49.233Z,64.30
2019-05-15T00:06:19.106Z,64.50
2019-05-15T00:08:48.115Z,64.60
2019-05-15T00:11:19.017Z,64.80
2019-05-15T00:13:48.337Z,64.80
2019-05-15T00:16:18.036Z,64.90
2019-05-15T00:18:48.255Z,65.00
2019-05-15T00:21:17.981Z,65.20
2019-05-15T00:23:49.258Z,65.30
2019-05-15T00:26:18.168Z,65.40
2019-05-15T00:28:47.975Z,65.40
2019-05-15T00:31:18.644Z,65.50
2019-05-15T00:33:48.266Z,65.70
2019-05-15T00:36:19.006Z,65.80
2019-05-15T00:38:48.354Z,65.90
2019-05-15T00:41:18.460Z,66.00
2019-05-15T00:43:49.325Z,65.90
2019-05-15T00:46:18.343Z,65.90
2019-05-15T00:48:48.775Z,65.90
2019-05-15T00:51:19.575Z,65.90
2019-05-15T00:53:48.295Z,65.90
2019-05-15T00:56:19.251Z,65.90
2019-05-15T00:58:48.172Z,65.90
2019-05-15T01:01:19.083Z,66.00
2019-05-15T01:03:49.173Z,66.10
2019-05-15T01:06:19.066Z,66.30
2019-05-15T01:08:48.274Z,66.40
2019-05-15T01:11:19.028Z,66.50
2019-05-15T01:13:48.194Z,66.80
2019-05-15T01:16:18.600Z,66.90
2019-05-15T01:18:49.140Z,66.90
2019-05-15T01:21:18.755Z,67.00
2019-05-15T01:23:48.426Z,67.20
2019-05-15T01:26:18.937Z,67.40
2019-05-15T01:28:49.503Z,67.70
2019-05-15T01:31:19.087Z,67.80
2019-05-15T01:33:48.127Z,68.10
2019-05-15T01:36:19.116Z,68.50
2019-05-15T01:38:48.028Z,68.70
2019-05-15T01:41:18.725Z,68.80
2019-05-15T01:43:48.931Z,68.90
2019-05-15T01:46:19.083Z,69.00
2019-05-15T01:48:49.309Z,69.10
2019-05-15T01:51:18.463Z,69.20
2019-05-15T01:53:48.046Z,69.30
2019-05-15T01:56:18.863Z,69.30
2019-05-15T01:58:48.695Z,69.40
2019-05-15T02:01:19.247Z,69.40
2019-05-15T02:03:49.308Z,69.50
2019-05-15T02:06:18.958Z,69.60
2019-05-15T02:08:49.748Z,69.80
2019-05-15T02:11:18.310Z,69.90
2019-05-15T02:13:47.995Z,70.00
2019-05-15T02:16:18.997Z,70.20
2019-05-15T02:18:48.924Z,70.30
2019-05-15T02:21:18.255Z,71.20
2019-05-15T02:23:48.172Z,70.50
2019-05-15T02:26:18.957Z,70.60
2019-05-15T02:28:48.777Z,70.70
2019-05-15T02:31:19.598Z,70.90
2019-05-15T02:33:49.803Z,70.80
2019-05-15T02:36:20.558Z,70.90
2019-05-15T02:38:48.929Z,71.80
2019-05-15T02:41:19.474Z,71.00
2019-05-15T02:43:50.124Z,71.10
2019-05-15T02:46:19.397Z,71.20
2019-05-15T02:48:48.930Z,71.30
2019-05-15T02:51:19.330Z,71.40
2019-05-15T02:53:50.087Z,71.60
2019-05-15T02:56:20.279Z,71.70
2019-05-15T02:58:49.294Z,71.70
2019-05-15T03:01:18.914Z,71.70
2019-05-15T03:03:49.762Z,71.80
2019-05-15T03:06:19.339Z,71.90
2019-05-15T03:08:49.648Z,72.00
2019-05-15T03:11:20.049Z,72.10
2019-05-15T03:13:50.353Z,72.30
2019-05-15T03:16:19.638Z,72.40
2019-05-15T03:18:50.475Z,72.60
2019-05-15T03:21:18.869Z,72.80
2019-05-15T03:23:50.619Z,73.10
2019-05-15T03:26:19.810Z,73.30
2019-05-15T03:28:49.566Z,73.20
2019-05-15T03:31:40.915Z,73.30
2019-05-15T03:33:53.745Z,73.40
2019-05-15T03:36:22.970Z,73.50
2019-05-15T03:38:50.035Z,73.60
2019-05-15T03:41:19.637Z,73.60
2019-05-15T03:43:49.625Z,73.70
2019-05-15T03:46:19.975Z,74.00
2019-05-15T03:48:48.974Z,74.00
2019-05-15T03:51:19.850Z,74.10
2019-05-15T03:53:49.723Z,74.10
2019-05-15T03:56:19.071Z,75.00
2019-05-15T03:58:49.276Z,74.30
2019-05-15T04:01:29.896Z,74.40
2019-05-15T04:03:49.638Z,74.50
2019-05-15T04:06:19.260Z,74.60
2019-05-15T04:08:49.584Z,74.60
2019-05-15T04:11:20.381Z,74.60
2019-05-15T04:13:50.011Z,74.70
2019-05-15T04:16:19.266Z,74.80
2019-05-15T04:18:49.026Z,75.00
2019-05-15T04:21:19.960Z,75.00
2019-05-15T04:23:49.929Z,75.10
2019-05-15T04:26:19.622Z,75.20
2019-05-15T04:28:49.458Z,75.40
2019-05-15T04:31:19.355Z,75.30
2019-05-15T04:33:49.167Z,75.30
2019-05-15T04:36:19.174Z,75.30
2019-05-15T04:38:49.830Z,75.30
2019-05-15T04:41:19.695Z,75.20
2019-05-15T04:43:49.565Z,75.10
2019-05-15T04:46:19.708Z,75.10
2019-05-15T04:48:50.163Z,75.00
2019-05-15T04:51:19.105Z,75.00
2019-05-15T04:53:50.346Z,74.80
2019-05-15T04:56:19.278Z,74.80
2019-05-15T04:58:50.781Z,74.80
2019-05-15T05:01:20.027Z,74.60
2019-05-15T05:03:49.703Z,74.60
2019-05-15T05:06:19.416Z,74.50
2019-05-15T05:08:50.222Z,74.50
2019-05-15T05:11:19.837Z,74.40
2019-05-15T05:13:49.201Z,74.20
2019-05-15T05:16:19.181Z,74.00
2019-05-15T05:18:48.829Z,73.80
2019-05-15T05:21:18.429Z,73.60
2019-05-15T05:23:48.363Z,73.20
2019-05-15T05:26:18.499Z,72.80
2019-05-15T05:28:48.663Z,72.40
2019-05-15T05:31:19.133Z,72.20
2019-05-15T05:33:48.630Z,71.90
2019-05-15T05:36:18.509Z,71.70
2019-05-15T05:38:49.382Z,71.50
2019-05-15T05:41:18.958Z,71.00
2019-05-15T05:43:48.745Z,70.70
2019-05-15T05:46:18.397Z,70.60
2019-05-15T05:48:48.895Z,70.50
2019-05-15T05:51:19.063Z,70.50
2019-05-15T05:53:48.083Z,70.30
2019-05-15T05:56:18.145Z,70.00
2019-05-15T05:58:49.102Z,70.00
2019-05-15T06:01:18.775Z,70.00
2019-05-15T06:03:49.131Z,69.80
2019-05-15T06:06:18.616Z,69.50
2019-05-15T06:08:48.165Z,69.50
2019-05-15T06:11:18.437Z,69.30
2019-05-15T06:13:51.873Z,69.50
2019-05-15T06:16:19.027Z,69.40
2019-05-15T06:18:49.183Z,69.20
2019-05-15T06:21:18.548Z,68.90
2019-05-15T06:23:54.539Z,68.90
2019-05-15T06:26:19.606Z,68.70
2019-05-15T06:28:49.141Z,68.50
2019-05-15T06:31:19.016Z,68.40
2019-05-15T06:33:49.081Z,68.30
2019-05-15T06:36:18.461Z,68.10
2019-05-15T06:38:48.325Z,67.70
2019-05-15T06:41:18.289Z,67.80
2019-05-15T06:43:48.423Z,67.50
2019-05-15T06:46:18.727Z,67.30
2019-05-15T06:48:48.670Z,67.20
2019-05-15T06:51:18.306Z,67.00
2019-05-15T06:53:49.221Z,66.70
2019-05-15T06:56:18.927Z,66.40
2019-05-15T06:58:48.711Z,66.20
2019-05-15T07:01:18.940Z,66.50
2019-05-15T07:03:48.588Z,65.70
2019-05-15T07:06:18.267Z,65.30
2019-05-15T07:08:49.636Z,64.90
2019-05-15T07:11:19.206Z,64.50
2019-05-15T07:13:48.777Z,64.10
2019-05-15T07:16:18.289Z,63.70
2019-05-15T07:18:48.589Z,63.10
2019-05-15T07:21:20.428Z,62.70
2019-05-15T07:23:49.668Z,62.40
2019-05-15T07:26:18.955Z,61.60
2019-05-15T07:28:48.651Z,61.20
2019-05-15T07:31:18.128Z,60.40
2019-05-15T07:33:49.130Z,60.10
2019-05-15T07:36:19.266Z,59.80
2019-05-15T07:38:48.807Z,59.30
2019-05-15T07:41:18.469Z,59.00
2019-05-15T07:43:49.392Z,58.60
2019-05-15T07:46:18.811Z,58.60
2019-05-15T07:48:49.086Z,58.30
2019-05-15T07:51:18.528Z,58.30
2019-05-15T07:53:48.915Z,58.10
2019-05-15T07:56:18.440Z,57.80
2019-05-15T07:58:52.567Z,57.60
2019-05-15T08:01:18.677Z,57.20
2019-05-15T08:03:58.704Z,57.10
2019-05-15T08:06:18.709Z,56.90
2019-05-15T08:08:48.679Z,56.70
2019-05-15T08:11:23.945Z,56.40
2019-05-15T08:13:48.960Z,56.00
2019-05-15T08:16:18.269Z,55.70
2019-05-15T08:18:48.421Z,55.40
2019-05-15T08:21:18.512Z,55.20
2019-05-15T08:23:48.489Z,54.80
2019-05-15T08:26:17.950Z,54.60
2019-05-15T08:28:48.794Z,54.40
2019-05-15T08:31:18.516Z,54.00
2019-05-15T08:33:48.190Z,53.50
2019-05-15T08:36:18.331Z,53.50
2019-05-15T08:38:48.658Z,53.20
2019-05-15T08:41:18.729Z,52.70
2019-05-15T08:43:48.797Z,52.60
2019-05-15T08:46:18.645Z,52.30
2019-05-15T08:48:49.183Z,52.20
2019-05-15T08:51:19.278Z,51.40
2019-05-15T08:53:48.990Z,51.10
2019-05-15T08:56:19.425Z,50.90
2019-05-15T08:58:48.937Z,50.60
2019-05-15T09:01:18.324Z,50.50
2019-05-15T09:03:48.915Z,50.30
2019-05-15T09:06:22.725Z,50.10
2019-05-15T09:08:49.868Z,49.70
2019-05-15T09:11:19.363Z,49.60
2019-05-15T09:13:53.957Z,49.30
2019-05-15T09:16:19.398Z,49.20
2019-05-15T09:18:48.759Z,48.90
2019-05-15T09:21:19.129Z,48.70
2019-05-15T09:23:49.812Z,48.80
2019-05-15T09:26:19.613Z,48.70
2019-05-15T09:28:49.539Z,48.50
2019-05-15T09:31:19.403Z,48.60
2019-05-15T09:33:49.343Z,48.30
2019-05-15T09:36:20.144Z,48.20
2019-05-15T09:38:49.574Z,48.10
2019-05-15T09:41:18.838Z,47.90
2019-05-15T09:43:48.627Z,47.60
2019-05-15T09:46:18.473Z,47.80
2019-05-15T09:48:51.560Z,47.90
2019-05-15T09:51:19.135Z,47.90
2019-05-15T09:53:48.596Z,47.80
2019-05-15T09:56:18.659Z,47.60
2019-05-15T09:58:48.965Z,47.70
2019-05-15T10:01:19.658Z,47.60
2019-05-15T10:03:49.031Z,47.60
2019-05-15T10:06:20.638Z,47.50
2019-05-15T10:08:49.276Z,47.60
2019-05-15T10:11:19.691Z,47.60
2019-05-15T10:13:49.161Z,47.60
2019-05-15T10:16:19.936Z,47.90
2019-05-15T10:18:50.924Z,47.70
2019-05-15T10:21:19.995Z,47.70
2019-05-15T10:23:49.622Z,47.90
2019-05-15T10:26:19.442Z,47.70
2019-05-15T10:28:49.546Z,47.50
2019-05-15T10:31:19.463Z,48.10
2019-05-15T10:33:49.285Z,47.50
2019-05-15T10:36:19.089Z,47.30
2019-05-15T10:38:49.035Z,47.30
2019-05-15T10:41:18.921Z,46.90
2019-05-15T10:43:55.828Z,46.90
2019-05-15T10:46:19.261Z,46.50
2019-05-15T10:48:49.350Z,46.50
2019-05-15T10:51:19.548Z,47.00
2019-05-15T10:53:49.106Z,46.80
2019-05-15T10:56:18.688Z,46.90
2019-05-15T10:58:50.442Z,47.10
2019-05-15T11:01:19.346Z,47.10
2019-05-15T11:03:49.565Z,47.40
2019-05-15T11:06:18.993Z,47.30
2019-05-15T11:08:51.100Z,47.30
2019-05-15T11:11:18.953Z,47.30
2019-05-15T11:13:48.027Z,47.20
2019-05-15T11:16:20.802Z,47.00
2019-05-15T11:18:48.300Z,47.60
2019-05-15T11:21:19.074Z,47.10
2019-05-15T11:23:49.363Z,46.90
2019-05-15T11:26:19.480Z,46.50
2019-05-15T11:28:49.798Z,46.00
2019-05-15T11:31:19.315Z,45.90
2019-05-15T11:33:49.312Z,45.70
2019-05-15T11:36:18.748Z,45.70
2019-05-15T11:38:48.584Z,45.90
2019-05-15T11:41:19.154Z,45.90
2019-05-15T11:43:49.514Z,45.60
2019-05-15T11:46:18.995Z,45.30
2019-05-15T11:48:49.857Z,45.10
2019-05-15T11:51:19.254Z,45.20
2019-05-15T11:53:49.216Z,45.00
2019-05-15T11:56:19.063Z,44.80
2019-05-15T11:58:48.378Z,45.00
2019-05-15T12:01:19.236Z,44.70
2019-05-15T12:03:48.335Z,44.70
2019-05-15T12:06:21.912Z,44.80
2019-05-15T12:08:48.454Z,45.00
2019-05-15T12:11:32.086Z,45.10
2019-05-15T12:13:48.535Z,45.00
2019-05-15T12:16:17.655Z,45.30
2019-05-15T12:18:48.337Z,45.50
2019-05-15T12:21:19.995Z,45.60
2019-05-15T12:23:48.850Z,45.60
2019-05-15T12:26:18.177Z,46.30
2019-05-15T12:28:48.973Z,45.80
2019-05-15T12:31:24.297Z,45.70
2019-05-15T12:33:49.165Z,45.90
2019-05-15T12:36:45.475Z,45.70
2019-05-15T12:38:50.332Z,45.40
2019-05-15T13:01:26.268Z,43.70
2019-05-15T13:03:57.833Z,43.50
2019-05-15T13:06:28.506Z,43.40
2019-05-15T13:08:59.489Z,43.30
2019-05-15T13:11:28.561Z,43.30
2019-05-15T13:13:59.098Z,43.70
2019-05-15T13:16:28.392Z,43.10
2019-05-15T13:18:58.820Z,43.00
2019-05-15T13:21:29.615Z,42.60
2019-05-15T13:23:58.862Z,42.60
2019-05-15T13:26:28.034Z,42.60
2019-05-15T13:28:58.357Z,42.40
2019-05-15T13:31:28.400Z,42.40
2019-05-15T13:33:58.807Z,42.50
2019-05-15T13:36:28.802Z,42.60
2019-05-15T13:38:58.194Z,42.60
2019-05-15T13:41:28.281Z,42.60
2019-05-15T13:43:58.410Z,42.60
2019-05-15T13:46:29.123Z,42.60
2019-05-15T13:48:59.447Z,42.80
2019-05-15T13:51:29.232Z,42.90
2019-05-15T13:53:58.448Z,43.00
2019-05-15T13:56:28.983Z,43.10
2019-05-15T13:58:58.842Z,43.20
2019-05-15T14:01:28.613Z,43.20
2019-05-15T14:03:58.885Z,43.00
2019-05-15T14:06:28.786Z,43.10
2019-05-15T14:08:58.241Z,43.30
2019-05-15T14:11:30.888Z,43.40
2019-05-15T14:14:00.930Z,43.30
2019-05-15T14:16:30.019Z,43.40
2019-05-15T14:18:59.254Z,43.40
2019-05-15T14:21:29.550Z,43.40
2019-05-15T14:24:01.409Z,43.40
2019-05-15T14:26:29.515Z,43.60
2019-05-15T14:28:58.785Z,43.60
2019-05-15T14:31:28.514Z,44.30
2019-05-15T14:33:58.061Z,43.80
2019-05-15T14:36:28.740Z,44.00
2019-05-15T14:38:58.751Z,44.10
2019-05-15T14:41:29.438Z,44.30
2019-05-15T14:44:13.091Z,44.30
2019-05-15T14:46:29.466Z,44.40
2019-05-15T14:48:58.617Z,44.60
2019-05-15T14:51:28.487Z,44.60
2019-05-15T14:53:58.376Z,44.50
2019-05-15T14:56:27.689Z,44.40
2019-05-15T14:58:58.595Z,44.30
2019-05-15T15:01:27.825Z,44.40
2019-05-15T15:03:58.147Z,44.60
2019-05-15T15:06:27.417Z,44.60
2019-05-15T15:08:59.088Z,44.60
2019-05-15T15:11:28.484Z,44.80
2019-05-15T15:13:57.973Z,44.90
2019-05-15T15:16:29.190Z,45.00
2019-05-15T15:18:58.488Z,45.00
2019-05-15T15:21:29.298Z,45.00
2019-05-15T15:23:58.842Z,45.30
2019-05-15T15:26:28.140Z,45.40
2019-05-15T15:28:58.988Z,45.60
2019-05-15T15:31:28.933Z,45.80
2019-05-15T15:33:58.275Z,45.90
2019-05-15T15:36:28.502Z,46.00
2019-05-15T15:38:58.807Z,46.20
2019-05-15T15:41:28.680Z,46.30
2019-05-15T15:43:58.648Z,46.30
2019-05-15T15:46:28.740Z,46.50
2019-05-15T15:48:59.248Z,46.40
2019-05-15T15:51:28.718Z,46.60
2019-05-15T15:53:57.862Z,46.80
2019-05-15T15:56:29.119Z,47.00
2019-05-15T15:58:59.441Z,47.40
2019-05-15T16:01:31.361Z,47.60
2019-05-15T16:03:59.533Z,48.00
2019-05-15T16:06:29.340Z,48.20
2019-05-15T16:08:59.594Z,48.40
2019-05-15T16:11:28.957Z,48.50
2019-05-15T16:13:58.739Z,48.60
2019-05-15T16:16:28.554Z,49.00
2019-05-15T16:18:57.766Z,49.20
2019-05-15T16:21:28.778Z,49.40
2019-05-15T16:23:58.326Z,49.70
2019-05-15T16:26:29.011Z,49.90
2019-05-15T16:29:01.716Z,50.10
2019-05-15T16:31:29.292Z,50.30
2019-05-15T16:33:58.914Z,50.60
2019-05-15T16:36:28.000Z,50.80
2019-05-15T16:39:05.173Z,50.90
2019-05-15T16:41:28.987Z,50.80
2019-05-15T16:43:58.334Z,50.80
2019-05-15T16:46:28.219Z,50.60
2019-05-15T16:48:58.374Z,50.40
2019-05-15T16:51:29.508Z,50.10
2019-05-15T16:53:59.138Z,49.90
2019-05-15T16:56:28.494Z,49.70
2019-05-15T16:58:59.718Z,49.60
2019-05-15T17:01:29.049Z,49.50
2019-05-15T17:03:58.547Z,49.50
2019-05-15T17:06:28.224Z,49.40
2019-05-15T17:08:57.932Z,49.40
2019-05-15T17:11:28.918Z,49.50
2019-05-15T17:13:59.197Z,49.60
2019-05-15T17:16:28.660Z,49.80
2019-05-15T17:18:58.274Z,49.70
2019-05-15T17:21:28.491Z,49.60
2019-05-15T17:23:58.308Z,49.50
2019-05-15T17:26:28.721Z,49.50
2019-05-15T17:28:58.354Z,49.80
2019-05-15T17:31:28.633Z,49.30
2019-05-15T17:33:58.335Z,49.30
2019-05-15T17:36:31.828Z,49.40
2019-05-15T17:38:58.697Z,49.30
2019-05-15T17:41:28.595Z,49.40
2019-05-15T17:43:58.122Z,49.40
2019-05-15T17:46:29.611Z,49.50
2019-05-15T17:49:06.767Z,49.50
2019-05-15T17:51:28.909Z,49.60
2019-05-15T17:53:58.324Z,49.80
2019-05-15T17:56:28.351Z,49.90
2019-05-15T17:58:58.198Z,50.60
2019-05-15T18:01:28.237Z,50.20
2019-05-15T18:03:59.418Z,50.40
2019-05-15T18:06:29.058Z,50.50
2019-05-15T18:08:59.284Z,50.70
2019-05-15T18:11:28.605Z,50.80
2019-05-15T18:13:58.260Z,51.30
2019-05-15T18:16:27.565Z,51.00
2019-05-15T18:18:58.598Z,51.10
2019-05-15T18:21:28.927Z,51.30
2019-05-15T18:23:58.786Z,51.50
2019-05-15T18:26:28.235Z,51.60
2019-05-15T18:28:58.451Z,51.70
2019-05-15T18:31:28.592Z,52.20
2019-05-15T18:33:59.621Z,52.00
2019-05-15T18:36:28.767Z,52.10
2019-05-15T18:38:58.861Z,52.20
2019-05-15T18:41:28.563Z,52.40
2019-05-15T18:43:57.984Z,52.90
2019-05-15T18:46:28.891Z,52.70
2019-05-15T18:48:58.173Z,52.70
2019-05-15T18:51:28.010Z,52.80
2019-05-15T18:53:58.808Z,53.00
2019-05-15T18:56:29.674Z,53.10
2019-05-15T18:58:59.073Z,53.20
2019-05-15T19:01:28.527Z,53.30
2019-05-15T19:03:58.189Z,53.40
2019-05-15T19:06:29.175Z,53.50
2019-05-15T19:08:58.651Z,53.50
2019-05-15T19:11:28.846Z,53.70
2019-05-15T19:13:58.957Z,53.70
2019-05-15T19:16:31.482Z,53.70
2019-05-15T19:18:59.107Z,53.60
2019-05-15T19:21:28.497Z,53.60
2019-05-15T19:23:58.377Z,53.60
2019-05-15T19:26:28.999Z,53.60
2019-05-15T19:28:59.212Z,53.60
2019-05-15T19:31:30.603Z,53.70
2019-05-15T19:33:59.360Z,53.60
2019-05-15T19:36:28.849Z,53.70
2019-05-15T19:38:57.981Z,53.70
2019-05-15T19:41:28.878Z,53.70
2019-05-15T19:43:58.190Z,53.80
2019-05-15T19:46:28.327Z,53.80
2019-05-15T19:48:58.131Z,53.80
2019-05-15T19:51:28.959Z,53.90
2019-05-15T19:53:58.785Z,54.00
2019-05-15T19:56:28.164Z,54.00
2019-05-15T19:58:58.213Z,54.00
2019-05-15T20:01:28.196Z,54.10
2019-05-15T20:03:58.574Z,54.30
2019-05-15T20:06:28.158Z,54.20
2019-05-15T20:08:58.696Z,54.30
2019-05-15T20:11:28.047Z,54.50
2019-05-15T20:13:58.317Z,54.60
2019-05-15T20:16:28.382Z,54.70
2019-05-15T20:18:58.193Z,54.90
2019-05-15T20:21:29.046Z,54.80
2019-05-15T20:23:58.228Z,55.00
2019-05-15T20:26:28.609Z,55.10
2019-05-15T20:28:58.283Z,55.20
2019-05-15T20:31:28.444Z,55.30
2019-05-15T20:34:05.640Z,55.40
2019-05-15T20:36:29.894Z,55.50
2019-05-15T20:38:59.385Z,55.60
2019-05-15T20:41:28.546Z,55.70
2019-05-15T20:43:58.279Z,55.80
2019-05-15T20:46:28.956Z,55.80
2019-05-15T20:48:58.263Z,55.90
2019-05-15T20:51:29.099Z,56.00
2019-05-15T20:53:58.356Z,56.00
2019-05-15T20:56:28.351Z,56.10
2019-05-15T20:58:58.288Z,56.10
2019-05-15T21:01:28.762Z,56.20
2019-05-15T21:03:59.506Z,56.40
2019-05-15T21:06:28.854Z,56.40
2019-05-15T21:08:58.045Z,56.50
2019-05-15T21:11:27.490Z,56.50
2019-05-15T21:13:58.141Z,56.60
2019-05-15T21:16:27.968Z,56.70
2019-05-15T21:18:57.788Z,56.70
2019-05-15T21:21:28.305Z,56.90
2019-05-15T21:23:58.007Z,57.00
2019-05-15T21:26:29.109Z,57.10
2019-05-15T21:28:58.732Z,57.30
2019-05-15T21:31:27.945Z,57.40
2019-05-15T21:33:58.907Z,57.50
2019-05-15T21:36:31.142Z,57.70
2019-05-15T21:38:59.028Z,57.80
2019-05-15T21:41:28.209Z,57.90
2019-05-15T21:43:59.315Z,58.10
2019-05-15T21:46:28.506Z,58.10
2019-05-15T21:49:00.609Z,58.30
2019-05-15T21:51:28.456Z,58.30
2019-05-15T21:53:58.184Z,58.40
2019-05-15T21:56:28.433Z,58.50
2019-05-15T21:58:58.189Z,58.50
2019-05-15T22:01:28.839Z,58.70
2019-05-15T22:03:58.899Z,58.90
2019-05-15T22:06:29.227Z,59.10
2019-05-15T22:08:58.733Z,59.20
2019-05-15T22:11:29.717Z,59.50
2019-05-15T22:13:58.831Z,59.50
2019-05-15T22:16:28.859Z,59.60
2019-05-15T22:18:58.328Z,59.80
2019-05-15T22:21:27.628Z,59.90
2019-05-15T22:23:59.850Z,60.00
2019-05-15T22:26:28.980Z,60.10
2019-05-15T22:28:58.486Z,60.40
2019-05-15T22:31:27.965Z,60.80
2019-05-15T22:33:58.521Z,60.60
2019-05-15T22:36:28.135Z,60.80
2019-05-15T22:38:59.379Z,60.90
2019-05-15T22:41:28.509Z,61.10
2019-05-15T22:43:57.678Z,61.10
2019-05-15T22:46:28.869Z,61.30
2019-05-15T22:48:59.054Z,61.50
2019-05-15T22:51:28.911Z,61.60
2019-05-15T22:53:58.233Z,61.70
2019-05-15T22:56:29.606Z,62.00
2019-05-15T22:58:58.473Z,62.10
2019-05-15T23:01:27.604Z,62.20
2019-05-15T23:03:58.338Z,62.50
2019-05-15T23:06:28.231Z,62.60
2019-05-15T23:08:58.141Z,62.70
2019-05-15T23:11:29.702Z,62.80
2019-05-15T23:13:58.680Z,62.80
2019-05-15T23:16:28.365Z,62.80
2019-05-15T23:18:58.828Z,62.80
2019-05-15T23:21:28.778Z,62.90
2019-05-15T23:23:58.113Z,62.90
2019-05-15T23:26:28.259Z,63.00
2019-05-15T23:28:58.542Z,63.00
2019-05-15T23:31:28.163Z,63.10
2019-05-15T23:33:57.507Z,63.10
2019-05-15T23:36:28.512Z,63.20
2019-05-15T23:38:58.398Z,63.10
2019-05-15T23:41:28.108Z,63.20
2019-05-15T23:43:57.303Z,63.20
2019-05-15T23:46:28.683Z,63.20
2019-05-15T23:48:58.838Z,64.20
2019-05-15T23:51:28.078Z,63.60
2019-05-15T23:53:58.692Z,63.90
2019-05-15T23:56:29.083Z,64.10
2019-05-15T23:58:58.497Z,64.10
